Krotz Springs, LA

11:21 PM CST on February 10, 2016 (GMT -0600)
MesoWest | | Change Station
CLOSE
Current Station
Personal Weather Station
Location: Krotz Springs, LA
Elevation: 48 ft
Nearby Weather Stations

Elev 48 ft 30.54 °N, 91.74 °W | Updated 58 days ago

Clear
Clear
46 °F
Feels Like 43 °F
N
7
Wind Variable Wind from SSW
Gusts 12 mph

Today
High -- | Low -- °F
--% Chance of Precip.
Yesterday
High -- | Low -- °F
Precip. -- in
Pressure 30.22 in
Visibility 10.0 miles
Clouds Clear
Windchill 43 °F
Dew Point 39 °F
Humidity 77%
Rainfall in
Snow Depth Not available.
6:52 AM 5:50 PM
Waxing Crescent, 9% visible
METAR KOPL 110455Z AUTO 20007KT 10SM CLR 07/03 A3022 RMK AO2 T00660030 PWINO
Pressure 30.22 in
Visibility 10.0 miles
Clouds Clear
Windchill 43 °F
Dew Point 39 °F
Humidity 77%
Rainfall in
Snow Depth Not available.
6:52 AM 5:50 PM
Waxing Crescent, 9% visible
METAR KOPL 110455Z AUTO 20007KT 10SM CLR 07/03 A3022 RMK AO2 T00660030 PWINO

10-Day Weather Forecast

Almanac

Astronomy

Feb. 10, 2016 Rise Set
Actual Time
Civil Twilight
Nautical Twilight
Astronomical Twilight
Moon
Length of Visible Light
Length of Day
Tomorrow will be .
, % of the Moon is Illuminated

Today's Extremes

State Highs State Lows

Community

WunderPhotos

Upload Photos

1,892,023 photos uploaded!

WunderBlog® & News

Nearby

Air Quality

  Air Quality AQ Index Pollutant
Not available.

Snow Depth

Station Depth Elevation

Earthquake Activity

City Distance Mag. Time & Date
Minimum magnitude displayed is 2.5.

Coastal Water Temperatures

Place Temperature

Stations

Nearby Weather Stations

Station Location Temp. Windchill Dew Point Humidity Wind Precip. Elev Updated Type
                   

Watches & Warnings

There are currently no watches in effect.